Time;durP1;ratioP1;P1;durP2;ratioP2;P2;SDS_P1;SDS_P2;PMS_P1;PMS_P2;Temp;Humidity;BMP_temperature;BMP_pressure;BME280_temperature;BME280_humidity;BME280_pressure;Samples;Min_cycle;Max_cycle;Signal;HPM_P1;HPM_P2
2022/09/14 00:01:38;;;;;;;10.00;8.80;;;;;;;;;;10308307;28;20054;-82
2022/09/14 00:06:39;;;;;;;10.98;8.60;;;;;;;;;;10314187;28;20278;-79
2022/09/14 00:11:40;;;;;;;9.50;8.50;;;;;;;;;;10311274;28;20037;-79
2022/09/14 00:16:41;;;;;;;8.55;7.68;;;;;;;;;;10313385;28;20387;-78
2022/09/14 00:21:41;;;;;;;9.10;8.20;;;;;;;;;;10291632;28;20039;-78
2022/09/14 00:26:41;;;;;;;8.07;7.28;;;;;;;;;;10307362;28;20043;-77
2022/09/14 00:31:42;;;;;;;9.18;7.90;;;;;;;;;;10301002;28;20042;-76
2022/09/14 00:36:43;;;;;;;9.13;8.20;;;;;;;;;;10306543;28;20042;-77
2022/09/14 00:41:45;;;;;;;8.70;7.90;;;;;;;;;;10297379;28;20409;-79
2022/09/14 00:46:47;;;;;;;11.70;8.10;;;;;;;;;;10310859;28;20027;-77
2022/09/14 00:51:51;;;;;;;9.00;8.07;;;;;;;;;;10306725;28;20027;-79
2022/09/14 00:56:52;;;;;;;8.65;7.75;;;;;;;;;;10327452;28;20043;-81
2022/09/14 01:01:52;;;;;;;10.55;8.52;;;;;;;;;;10326150;28;20043;-80
2022/09/14 01:07:12;;;;;;;8.35;7.43;;;;;;;;;;10310800;28;20160;-80
2022/09/14 01:12:19;;;;;;;9.38;8.07;;;;;;;;;;10321538;28;20126;-80
2022/09/14 01:17:38;;;;;;;8.80;7.78;;;;;;;;;;10319677;28;20042;-80
2022/09/14 01:22:52;;;;;;;10.20;9.20;;;;;;;;;;10310270;28;20051;-79
2022/09/14 01:27:55;;;;;;;10.75;8.93;;;;;;;;;;10346061;28;20066;-81
2022/09/14 01:33:15;;;;;;;8.35;7.50;;;;;;;;;;10335188;28;20047;-78
2022/09/14 01:38:21;;;;;;;10.57;9.48;;;;;;;;;;10309258;28;20117;-77
2022/09/14 01:43:23;;;;;;;9.52;8.63;;;;;;;;;;10343362;28;20057;-79
2022/09/14 01:48:31;;;;;;;11.75;9.43;;;;;;;;;;10372403;28;20039;-78
2022/09/14 01:53:55;;;;;;;9.40;8.50;;;;;;;;;;10361048;28;20098;-78
2022/09/14 01:58:59;;;;;;;10.30;9.23;;;;;;;;;;10316093;28;20597;-78
2022/09/14 02:04:01;;;;;;;11.98;10.02;;;;;;;;;;10317862;28;20074;-78
2022/09/14 02:09:02;;;;;;;10.73;9.52;;;;;;;;;;10319477;28;20049;-82
2022/09/14 02:14:03;;;;;;;11.32;9.55;;;;;;;;;;10318258;28;20043;-81
2022/09/14 02:19:05;;;;;;;10.85;8.90;;;;;;;;;;10306044;28;20038;-82
2022/09/14 02:24:09;;;;;;;;;;;;;;;;;;10316518;28;20070;-79
2022/09/14 02:29:11;;;;;;;11.45;10.25;;;;;;;;;;10311611;28;19925;-80
2022/09/14 02:34:36;;;;;;;12.77;9.57;;;;;;;;;;10315464;28;20546;-79
2022/09/14 02:39:52;;;;;;;12.88;10.50;;;;;;;;;;10311295;28;20046;-77
2022/09/14 02:44:55;;;;;;;11.32;10.13;;;;;;;;;;10312148;28;20042;-78
2022/09/14 02:49:56;;;;;;;10.15;9.10;;;;;;;;;;10311505;28;20039;-77
2022/09/14 02:55:00;;;;;;;10.47;9.03;;;;;;;;;;10309479;28;20577;-80
2022/09/14 03:00:00;;;;;;;9.63;8.55;;;;;;;;;;10315321;28;20188;-79
2022/09/14 03:05:01;;;;;;;10.18;9.07;;;;;;;;;;10314145;28;20121;-79
2022/09/14 03:10:01;;;;;;;10.77;9.15;;;;;;;;;;10312836;28;20126;-79
2022/09/14 03:15:01;;;;;;;9.45;8.45;;;;;;;;;;10335210;28;20131;-80
2022/09/14 03:20:04;;;;;;;9.80;8.60;;;;;;;;;;10321102;28;20079;-77
2022/09/14 03:25:05;;;;;;;10.40;9.10;;;;;;;;;;10353510;28;20338;-80
2022/09/14 03:30:06;;;;;;;9.52;8.57;;;;;;;;;;10330609;28;20046;-77
2022/09/14 03:35:07;;;;;;;12.75;8.95;;;;;;;;;;10337321;28;20049;-77
2022/09/14 03:40:11;;;;;;;12.38;9.43;;;;;;;;;;10317053;28;20057;-79
2022/09/14 03:45:13;;;;;;;12.10;9.77;;;;;;;;;;10333879;28;20077;-78
2022/09/14 03:50:16;;;;;;;12.20;10.20;;;;;;;;;;10316422;28;20058;-79
2022/09/14 03:55:18;;;;;;;13.27;10.82;;;;;;;;;;10305470;28;20047;-81
2022/09/14 04:00:19;;;;;;;11.10;9.88;;;;;;;;;;10305754;28;20545;-79
2022/09/14 04:05:20;;;;;;;15.20;11.18;;;;;;;;;;10334107;28;20422;-85
2022/09/14 04:10:20;;;;;;;14.87;12.27;;;;;;;;;;10331359;28;20121;-84
2022/09/14 04:15:21;;;;;;;13.80;11.57;;;;;;;;;;10316657;28;20706;-82
2022/09/14 04:20:23;;;;;;;16.35;12.60;;;;;;;;;;10308647;28;20095;-78
2022/09/14 04:25:25;;;;;;;15.23;12.65;;;;;;;;;;10302489;28;20464;-81
2022/09/14 04:30:25;;;;;;;13.57;11.80;;;;;;;;;;10319614;28;20031;-82
2022/09/14 04:35:25;;;;;;;15.77;13.20;;;;;;;;;;10323528;28;20293;-89
2022/09/14 04:40:27;;;;;;;15.23;13.00;;;;;;;;;;10308172;28;20387;-82
2022/09/14 04:45:28;;;;;;;19.50;14.65;;;;;;;;;;10329004;28;20031;-84
2022/09/14 04:50:32;;;;;;;18.38;13.05;;;;;;;;;;10321690;28;20035;-85
2022/09/14 04:55:36;;;;;;;15.13;12.80;;;;;;;;;;10357622;28;20042;-85
2022/09/14 05:00:36;;;;;;;21.42;14.75;;;;;;;;;;10416323;23;20065;-82
2022/09/14 05:05:38;;;;;;;15.57;12.60;;;;;;;;;;10389322;28;20035;-81
2022/09/14 05:10:40;;;;;;;17.83;13.30;;;;;;;;;;10376872;28;20343;-83
2022/09/14 05:15:41;;;;;;;19.90;14.20;;;;;;;;;;10367266;28;20114;-82
2022/09/14 05:20:41;;;;;;;16.10;12.88;;;;;;;;;;10403367;28;20081;-83
2022/09/14 05:25:42;;;;;;;17.20;12.70;;;;;;;;;;10784110;22;20058;-83
2022/09/14 05:30:43;;;;;;;21.42;16.00;;;;;;;;;;10528856;22;20312;-69
2022/09/14 05:41:11;;;;;;;18.35;13.60;;;;;;;;;;11091032;22;20034;-83
2022/09/14 05:46:13;;;;;;;18.67;13.80;;;;;;;;;;11004172;22;20066;-82
2022/09/14 05:51:20;;;;;;;16.70;13.60;;;;;;;;;;10387752;28;20010;-83
2022/09/14 06:18:16;;;;;;;17.30;15.32;;;;;;;;;;10330845;28;20100;-81
2022/09/14 06:28:33;;;;;;;18.58;16.20;;;;;;;;;;10534762;23;20625;-87
2022/09/14 06:39:07;;;;;;;20.95;16.63;;;;;;;;;;10538079;23;20104;-86
2022/09/14 06:49:12;;;;;;;20.02;16.38;;;;;;;;;;10695505;23;20064;-84
2022/09/14 07:04:43;;;;;;;23.55;17.05;;;;;;;;;;10432983;23;20121;-84
2022/09/14 07:09:44;;;;;;;22.60;17.50;;;;;;;;;;10811274;23;20047;-84
2022/09/14 07:20:00;;;;;;;25.67;19.83;;;;;;;;;;10365044;28;20117;-89
2022/09/14 07:25:02;;;;;;;25.83;19.77;;;;;;;;;;10357769;28;20116;-88
2022/09/14 07:35:38;;;;;;;24.10;19.08;;;;;;;;;;10378163;23;20057;-87
2022/09/14 07:40:38;;;;;;;20.60;16.53;;;;;;;;;;10392718;28;20122;-91
2022/09/14 07:45:39;;;;;;;19.98;17.35;;;;;;;;;;10402239;28;20303;-87
2022/09/14 07:56:06;;;;;;;17.00;14.65;;;;;;;;;;10609748;23;20054;-88
2022/09/14 08:01:07;;;;;;;18.50;14.50;;;;;;;;;;10520304;23;20064;-91
2022/09/14 08:11:14;;;;;;;19.15;15.35;;;;;;;;;;11213855;23;20045;-87
2022/09/14 08:21:38;;;;;;;17.40;13.90;;;;;;;;;;11135745;23;20054;-82
2022/09/14 08:26:39;;;;;;;18.90;16.23;;;;;;;;;;11216841;23;20069;-83
2022/09/14 08:31:41;;;;;;;25.17;18.08;;;;;;;;;;11316495;23;20069;-84
2022/09/14 08:36:42;;;;;;;22.58;17.15;;;;;;;;;;10717811;23;20041;-80
2022/09/14 08:47:06;;;;;;;;;;;;;;;;;;10886418;23;20054;-88
2022/09/14 08:52:12;;;;;;;24.15;17.55;;;;;;;;;;10362091;28;19918;-87
2022/09/14 08:57:38;;;;;;;18.90;16.85;;;;;;;;;;10343021;28;20039;-85
2022/09/14 09:08:08;;;;;;;20.42;17.65;;;;;;;;;;10586223;23;20058;-91
2022/09/14 09:18:41;;;;;;;26.50;21.00;;;;;;;;;;10496271;23;20113;-89
2022/09/14 09:23:42;;;;;;;20.13;16.35;;;;;;;;;;10382219;28;20038;-87
2022/09/14 09:28:48;;;;;;;26.95;19.63;;;;;;;;;;10715274;22;20030;-88
2022/09/14 09:33:49;;;;;;;23.92;17.80;;;;;;;;;;10386781;28;20057;-83
2022/09/14 09:38:54;;;;;;;21.85;17.63;;;;;;;;;;10403325;28;20068;-83
2022/09/14 09:44:00;;;;;;;23.07;18.13;;;;;;;;;;10391265;28;20089;-83
2022/09/14 09:49:02;;;;;;;23.70;18.48;;;;;;;;;;10372364;28;20348;-84
2022/09/14 09:54:11;;;;;;;17.27;15.25;;;;;;;;;;10361562;28;20045;-83
2022/09/14 09:59:34;;;;;;;17.70;15.45;;;;;;;;;;10365685;28;20500;-82
2022/09/14 10:04:34;;;;;;;26.90;19.65;;;;;;;;;;10369029;28;20034;-84
2022/09/14 10:09:35;;;;;;;24.20;19.67;;;;;;;;;;10363295;28;20049;-85
2022/09/14 10:14:36;;;;;;;19.80;15.45;;;;;;;;;;10363092;28;20498;-83
2022/09/14 10:19:37;;;;;;;20.55;16.08;;;;;;;;;;10380518;28;20030;-81
2022/09/14 10:24:38;;;;;;;23.63;18.75;;;;;;;;;;10369024;28;20058;-84
2022/09/14 10:29:41;;;;;;;18.70;16.13;;;;;;;;;;10367917;28;20061;-83
2022/09/14 10:34:42;;;;;;;21.20;15.63;;;;;;;;;;10369067;28;20042;-85
2022/09/14 10:39:49;;;;;;;18.37;14.40;;;;;;;;;;10394295;28;20061;-84
2022/09/14 10:45:08;;;;;;;21.42;16.13;;;;;;;;;;10379035;28;20042;-83
2022/09/14 10:50:21;;;;;;;18.20;14.10;;;;;;;;;;10349849;28;20053;-81
2022/09/14 10:55:33;;;;;;;17.75;13.00;;;;;;;;;;10369660;28;20037;-88
2022/09/14 11:00:59;;;;;;;17.85;13.98;;;;;;;;;;10378354;28;20077;-80
2022/09/14 11:06:17;;;;;;;18.58;14.57;;;;;;;;;;10297241;28;20046;-82
2022/09/14 11:11:18;;;;;;;21.85;15.43;;;;;;;;;;10366636;28;20042;-82
2022/09/14 11:16:18;;;;;;;19.13;14.77;;;;;;;;;;10396529;28;20536;-80
2022/09/14 11:21:21;;;;;;;17.10;14.90;;;;;;;;;;10396604;28;20311;-79
2022/09/14 11:26:30;;;;;;;17.58;13.50;;;;;;;;;;10408218;28;20053;-86
2022/09/14 11:31:32;;;;;;;19.48;14.40;;;;;;;;;;10694804;23;1619036;-75
2022/09/14 11:36:36;;;;;;;14.70;12.23;;;;;;;;;;10333238;28;20034;-77
2022/09/14 11:41:59;;;;;;;13.43;12.02;;;;;;;;;;10314166;28;20105;-77
2022/09/14 11:47:03;;;;;;;21.70;17.08;;;;;;;;;;10316925;28;20034;-79
2022/09/14 11:52:07;;;;;;;13.77;10.75;;;;;;;;;;10315691;28;20105;-81
2022/09/14 11:57:19;;;;;;;12.35;11.00;;;;;;;;;;10331973;28;20049;-82
2022/09/14 12:02:21;;;;;;;15.98;13.35;;;;;;;;;;10322591;28;20587;-85
2022/09/14 12:12:56;;;;;;;10.13;8.65;;;;;;;;;;10944530;23;20504;-86
2022/09/14 12:18:00;;;;;;;11.75;9.95;;;;;;;;;;10618888;23;20038;-85
2022/09/14 12:23:06;;;;;;;12.02;9.80;;;;;;;;;;10362303;28;20065;-87
2022/09/14 12:28:58;;;;;;;13.98;11.10;;;;;;;;;;10430824;23;20057;-86
2022/09/14 12:34:15;;;;;;;11.18;9.98;;;;;;;;;;10282764;28;20050;-81
2022/09/14 12:39:15;;;;;;;12.82;11.05;;;;;;;;;;10384668;28;20045;-84
2022/09/14 12:44:28;;;;;;;12.80;10.02;;;;;;;;;;10405776;28;20045;-81
2022/09/14 12:49:29;;;;;;;11.63;10.27;;;;;;;;;;10392981;28;20041;-78
2022/09/14 12:54:44;;;;;;;13.10;10.20;;;;;;;;;;10381473;28;20029;-84
2022/09/14 12:59:45;;;;;;;12.77;11.25;;;;;;;;;;10373358;28;20081;-81
2022/09/14 13:04:46;;;;;;;12.73;10.57;;;;;;;;;;10392376;28;20045;-83
2022/09/14 13:09:52;;;;;;;13.80;10.65;;;;;;;;;;10398083;28;20039;-82
2022/09/14 13:14:58;;;;;;;14.57;10.88;;;;;;;;;;10369169;28;20496;-78
2022/09/14 13:20:01;;;;;;;12.00;10.27;;;;;;;;;;10368747;28;20058;-77
2022/09/14 13:25:02;;;;;;;13.15;11.23;;;;;;;;;;10371224;28;20433;-76
2022/09/14 13:30:06;;;;;;;12.00;10.27;;;;;;;;;;10366914;28;20046;-79
2022/09/14 13:35:19;;;;;;;14.73;10.80;;;;;;;;;;10368301;28;20041;-81
2022/09/14 13:40:26;;;;;;;12.77;11.30;;;;;;;;;;10374981;28;20050;-80
2022/09/14 13:45:27;;;;;;;12.57;11.13;;;;;;;;;;10371122;28;20030;-79
2022/09/14 13:50:27;;;;;;;12.00;9.93;;;;;;;;;;10364599;28;20045;-79
2022/09/14 13:55:31;;;;;;;10.48;9.40;;;;;;;;;;10374324;28;20030;-79
2022/09/14 14:00:32;;;;;;;10.50;9.27;;;;;;;;;;10360518;28;20049;-81
2022/09/14 14:05:40;;;;;;;10.90;9.75;;;;;;;;;;10366323;28;20037;-80
2022/09/14 14:10:45;;;;;;;10.30;8.85;;;;;;;;;;10367089;28;20045;-79
2022/09/14 14:15:45;;;;;;;10.60;9.25;;;;;;;;;;10372938;28;20036;-81
2022/09/14 14:20:45;;;;;;;13.37;10.40;;;;;;;;;;10389776;28;20069;-84
2022/09/14 14:25:51;;;;;;;12.55;9.55;;;;;;;;;;10406201;28;20045;-81
2022/09/14 14:30:53;;;;;;;12.45;10.98;;;;;;;;;;10411778;28;20021;-83
2022/09/14 15:02:57;;;;;;;17.92;13.80;;;;;;;;;;10581189;23;20065;-85
2022/09/14 15:07:58;;;;;;;14.73;10.33;;;;;;;;;;10521638;23;20054;-87
2022/09/14 15:18:23;;;;;;;;;;;;;;;;;;10836777;23;20054;-84
2022/09/14 15:23:50;;;;;;;9.57;5.97;;;;;;;;;;10415365;28;19928;-86
2022/09/14 15:29:12;;;;;;;7.80;5.25;;;;;;;;;;10398884;28;20053;-83
2022/09/14 15:39:36;;;;;;;13.05;9.43;;;;;;;;;;11470360;23;20100;-88
2022/09/14 15:44:39;;;;;;;9.38;5.35;;;;;;;;;;10808896;23;20042;-87
2022/09/14 15:49:52;;;;;;;11.13;6.30;;;;;;;;;;10552373;23;20050;-87
2022/09/14 15:54:54;;;;;;;12.30;8.75;;;;;;;;;;10394767;28;20037;-84
2022/09/14 15:59:54;;;;;;;5.65;4.75;;;;;;;;;;10386074;28;20030;-84
2022/09/14 16:04:54;;;;;;;6.25;5.25;;;;;;;;;;10389898;28;20028;-85
2022/09/14 16:09:55;;;;;;;5.97;4.47;;;;;;;;;;10400351;28;20009;-87
2022/09/14 16:14:57;;;;;;;5.90;4.67;;;;;;;;;;10406524;28;20030;-89
2022/09/14 16:19:57;;;;;;;15.30;12.03;;;;;;;;;;10382703;28;20054;-89
2022/09/14 16:25:32;;;;;;;6.88;4.40;;;;;;;;;;10390891;28;20081;-81
2022/09/14 16:31:11;;;;;;;4.10;3.70;;;;;;;;;;10388288;28;20042;-85
2022/09/14 16:36:37;;;;;;;6.47;4.35;;;;;;;;;;10386708;28;20045;-84
2022/09/14 16:42:20;;;;;;;5.80;3.92;;;;;;;;;;10375397;28;20065;-89
2022/09/14 16:47:24;;;;;;;5.45;3.92;;;;;;;;;;10385731;28;20025;-82
2022/09/14 16:52:32;;;;;;;6.20;3.30;;;;;;;;;;10317974;28;20053;-84
2022/09/14 16:57:53;;;;;;;4.75;3.55;;;;;;;;;;10352096;28;20160;-84
2022/09/14 17:03:27;;;;;;;6.97;3.63;;;;;;;;;;10368455;28;20042;-81
2022/09/14 17:08:30;;;;;;;5.93;3.72;;;;;;;;;;10313714;28;20042;-79
2022/09/14 17:13:31;;;;;;;5.53;4.07;;;;;;;;;;10346566;28;20038;-80
2022/09/14 17:18:35;;;;;;;4.68;3.72;;;;;;;;;;10375314;28;20050;-84
2022/09/14 17:23:35;;;;;;;5.40;3.13;;;;;;;;;;10383594;28;20034;-85
2022/09/14 17:28:39;;;;;;;6.47;3.80;;;;;;;;;;10375460;28;20029;-82
2022/09/14 17:33:49;;;;;;;3.90;3.00;;;;;;;;;;10438201;23;20057;-87
2022/09/14 17:39:09;;;;;;;13.00;8.75;;;;;;;;;;10360726;28;20057;-87
2022/09/14 17:44:18;;;;;;;6.05;3.63;;;;;;;;;;10348499;28;20046;-88
2022/09/14 17:49:21;;;;;;;4.82;3.42;;;;;;;;;;10342751;28;20038;-84
2022/09/14 17:54:22;;;;;;;3.53;2.90;;;;;;;;;;10350492;28;20066;-87
2022/09/14 17:59:23;;;;;;;6.90;3.47;;;;;;;;;;10328027;28;20569;-82
2022/09/14 18:04:23;;;;;;;4.07;3.58;;;;;;;;;;10337692;28;20058;-83
2022/09/14 18:09:30;;;;;;;6.55;3.53;;;;;;;;;;10331241;28;20057;-84
2022/09/14 18:14:38;;;;;;;5.57;4.35;;;;;;;;;;10335775;28;20039;-81
2022/09/14 18:19:40;;;;;;;5.20;4.40;;;;;;;;;;10342984;28;20127;-83
2022/09/14 18:24:46;;;;;;;5.07;4.28;;;;;;;;;;10364265;28;20046;-84
2022/09/14 18:29:49;;;;;;;6.95;4.50;;;;;;;;;;10364167;28;20031;-81
2022/09/14 18:34:50;;;;;;;7.05;5.57;;;;;;;;;;10361007;28;20034;-82
2022/09/14 18:39:51;;;;;;;6.35;4.60;;;;;;;;;;10361922;28;20061;-82
2022/09/14 18:44:56;;;;;;;7.57;4.85;;;;;;;;;;10335056;28;20042;-81
2022/09/14 18:49:59;;;;;;;5.65;4.05;;;;;;;;;;10331555;28;20066;-82
2022/09/14 18:55:02;;;;;;;4.95;3.75;;;;;;;;;;10319179;28;20533;-79
2022/09/14 19:00:03;;;;;;;6.03;4.10;;;;;;;;;;10313400;28;20050;-79
2022/09/14 19:05:04;;;;;;;6.82;4.80;;;;;;;;;;10311984;28;20038;-80
2022/09/14 19:10:07;;;;;;;6.10;4.55;;;;;;;;;;10301558;28;20376;-84
2022/09/14 19:15:10;;;;;;;5.50;4.60;;;;;;;;;;10325710;28;20042;-84
2022/09/14 19:20:14;;;;;;;5.25;4.10;;;;;;;;;;10326943;28;20046;-80
2022/09/14 19:25:18;;;;;;;6.80;4.37;;;;;;;;;;10309433;28;20054;-81
2022/09/14 19:30:20;;;;;;;7.25;4.38;;;;;;;;;;10318177;28;20053;-81
2022/09/14 19:35:20;;;;;;;4.43;3.93;;;;;;;;;;10306702;28;20038;-82
2022/09/14 19:40:23;;;;;;;5.23;4.50;;;;;;;;;;10306558;28;20043;-83
2022/09/14 19:45:23;;;;;;;7.65;4.82;;;;;;;;;;10320269;28;20138;-86
2022/09/14 19:50:24;;;;;;;6.28;4.65;;;;;;;;;;10337579;28;20733;-85
2022/09/14 19:55:25;;;;;;;7.18;4.88;;;;;;;;;;10330212;28;20112;-83
2022/09/14 20:00:30;;;;;;;;;;;;;;;;;;10625137;23;20054;-86
2022/09/14 20:05:31;;;;;;;8.23;4.63;;;;;;;;;;10400624;28;19897;-88
2022/09/14 20:10:34;;;;;;;4.68;4.07;;;;;;;;;;10387782;28;20097;-89
2022/09/14 20:15:35;;;;;;;6.38;4.80;;;;;;;;;;10529679;23;20048;-87
2022/09/14 20:26:03;;;;;;;7.38;4.50;;;;;;;;;;10661106;22;20137;-87
2022/09/14 20:31:05;;;;;;;7.03;5.05;;;;;;;;;;11014922;23;20125;-86
2022/09/14 20:41:07;;;;;;;6.32;5.07;;;;;;;;;;10757834;23;20046;-88
2022/09/14 20:46:12;;;;;;;7.50;5.13;;;;;;;;;;10374780;28;20039;-86
2022/09/14 20:51:17;;;;;;;8.43;5.20;;;;;;;;;;10348757;28;20045;-85
2022/09/14 20:56:23;;;;;;;6.10;5.22;;;;;;;;;;10335503;28;20054;-85
2022/09/14 21:01:34;;;;;;;7.87;5.83;;;;;;;;;;10348356;28;20042;-83
2022/09/14 21:07:06;;;;;;;6.38;5.65;;;;;;;;;;10365129;28;20039;-86
2022/09/14 21:22:43;;;;;;;7.68;6.05;;;;;;;;;;10544401;23;20035;-83
2022/09/14 21:27:44;;;;;;;6.78;5.55;;;;;;;;;;10418150;28;20093;-85
2022/09/14 21:32:51;;;;;;;10.60;6.55;;;;;;;;;;10884435;23;20056;-84
2022/09/14 21:44:23;;;;;;;;;;;;;;;;;;;;;
2022/09/14 22:00:58;;;;;;;11.88;7.55;;;;;;;;;;10633250;22;19949;-87
2022/09/14 22:16:59;;;;;;;10.93;6.95;;;;;;;;;;10970107;23;20089;-82
2022/09/14 22:22:33;;;;;;;12.32;7.00;;;;;;;;;;11726629;23;20110;-85
2022/09/14 22:27:39;;;;;;;9.90;6.85;;;;;;;;;;11090158;23;21330;-86
2022/09/14 22:38:07;;;;;;;9.90;7.00;;;;;;;;;;11272891;23;20465;-88
2022/09/14 22:43:21;;;;;;;9.15;6.63;;;;;;;;;;12036353;23;20034;-86
2022/09/14 22:48:23;;;;;;;9.25;6.68;;;;;;;;;;10381516;28;20037;-88
2022/09/14 22:53:26;;;;;;;9.98;7.85;;;;;;;;;;10370322;28;20046;-88
2022/09/14 22:58:28;;;;;;;9.07;7.22;;;;;;;;;;10371517;28;20111;-87
2022/09/14 23:04:01;;;;;;;8.15;5.93;;;;;;;;;;10382092;28;20090;-85
2022/09/14 23:09:08;;;;;;;7.70;6.45;;;;;;;;;;10379898;28;20034;-86
2022/09/14 23:14:12;;;;;;;10.77;7.32;;;;;;;;;;10377462;28;20073;-85
2022/09/14 23:19:31;;;;;;;8.30;6.45;;;;;;;;;;10389114;28;20050;-85
2022/09/14 23:25:15;;;;;;;7.97;5.90;;;;;;;;;;10386866;28;20321;-86
2022/09/14 23:35:50;;;;;;;6.97;5.63;;;;;;;;;;10652239;23;20132;-84
2022/09/14 23:41:14;;;;;;;7.00;5.50;;;;;;;;;;10416140;28;20073;-81
2022/09/14 23:46:17;;;;;;;6.88;5.78;;;;;;;;;;10382222;28;20062;-86
2022/09/14 23:51:22;;;;;;;7.10;5.82;;;;;;;;;;10355048;28;20037;-84
2022/09/14 23:56:28;;;;;;;12.20;6.65;;;;;;;;;;10375541;28;20050;-88
